sensor_id;sensor_type;location;lat;lon;timestamp;P1;durP1;ratioP1;P2;durP2;ratioP2
20828;SDS011;10575;50.124;8.582;2022-08-19T00:00:17;16.60;;;12.48;;
20828;SDS011;10575;50.124;8.582;2022-08-19T00:02:44;16.70;;;12.38;;
20828;SDS011;10575;50.124;8.582;2022-08-19T00:05:11;16.25;;;12.30;;
20828;SDS011;10575;50.124;8.582;2022-08-19T00:07:38;17.00;;;12.55;;
20828;SDS011;10575;50.124;8.582;2022-08-19T00:10:05;22.35;;;14.38;;
20828;SDS011;10575;50.124;8.582;2022-08-19T00:12:31;15.88;;;11.65;;
20828;SDS011;10575;50.124;8.582;2022-08-19T00:14:57;20.10;;;14.43;;
20828;SDS011;10575;50.124;8.582;2022-08-19T00:17:22;20.38;;;13.02;;
20828;SDS011;10575;50.124;8.582;2022-08-19T00:19:48;17.08;;;12.23;;
20828;SDS011;10575;50.124;8.582;2022-08-19T00:22:13;17.33;;;13.32;;
20828;SDS011;10575;50.124;8.582;2022-08-19T00:24:40;14.27;;;11.27;;
20828;SDS011;10575;50.124;8.582;2022-08-19T00:27:08;16.92;;;13.15;;
20828;SDS011;10575;50.124;8.582;2022-08-19T00:29:33;17.60;;;12.20;;
20828;SDS011;10575;50.124;8.582;2022-08-19T00:31:59;16.85;;;12.10;;
20828;SDS011;10575;50.124;8.582;2022-08-19T00:34:25;17.17;;;13.10;;
20828;SDS011;10575;50.124;8.582;2022-08-19T00:36:53;15.30;;;11.70;;
20828;SDS011;10575;50.124;8.582;2022-08-19T00:39:20;16.35;;;12.13;;
20828;SDS011;10575;50.124;8.582;2022-08-19T00:41:46;17.17;;;11.93;;
20828;SDS011;10575;50.124;8.582;2022-08-19T00:44:19;13.75;;;11.35;;
20828;SDS011;10575;50.124;8.582;2022-08-19T00:46:50;15.93;;;11.88;;
20828;SDS011;10575;50.124;8.582;2022-08-19T00:49:41;16.13;;;12.25;;
20828;SDS011;10575;50.124;8.582;2022-08-19T00:52:07;14.55;;;11.40;;
20828;SDS011;10575;50.124;8.582;2022-08-19T00:54:37;16.08;;;12.57;;
20828;SDS011;10575;50.124;8.582;2022-08-19T00:57:05;13.13;;;11.18;;
20828;SDS011;10575;50.124;8.582;2022-08-19T00:59:39;16.25;;;11.52;;
20828;SDS011;10575;50.124;8.582;2022-08-19T01:02:06;15.35;;;10.50;;
20828;SDS011;10575;50.124;8.582;2022-08-19T01:04:32;14.60;;;11.02;;
20828;SDS011;10575;50.124;8.582;2022-08-19T01:06:58;13.02;;;11.02;;
20828;SDS011;10575;50.124;8.582;2022-08-19T01:09:24;12.40;;;10.07;;
20828;SDS011;10575;50.124;8.582;2022-08-19T01:11:50;14.85;;;10.20;;
20828;SDS011;10575;50.124;8.582;2022-08-19T01:14:16;14.02;;;9.85;;
20828;SDS011;10575;50.124;8.582;2022-08-19T01:16:43;12.57;;;10.20;;
20828;SDS011;10575;50.124;8.582;2022-08-19T01:24:41;12.75;;;10.02;;
20828;SDS011;10575;50.124;8.582;2022-08-19T01:27:07;13.63;;;10.02;;
20828;SDS011;10575;50.124;8.582;2022-08-19T01:29:34;15.40;;;10.88;;
20828;SDS011;10575;50.124;8.582;2022-08-19T01:32:04;11.50;;;8.50;;
20828;SDS011;10575;50.124;8.582;2022-08-19T01:34:30;11.15;;;9.32;;
20828;SDS011;10575;50.124;8.582;2022-08-19T01:36:59;10.13;;;8.50;;
20828;SDS011;10575;50.124;8.582;2022-08-19T01:39:26;13.15;;;9.88;;
20828;SDS011;10575;50.124;8.582;2022-08-19T01:41:53;15.18;;;10.10;;
20828;SDS011;10575;50.124;8.582;2022-08-19T01:44:19;12.20;;;9.60;;
20828;SDS011;10575;50.124;8.582;2022-08-19T01:46:48;12.65;;;9.77;;
20828;SDS011;10575;50.124;8.582;2022-08-19T01:49:15;13.85;;;10.60;;
20828;SDS011;10575;50.124;8.582;2022-08-19T01:51:43;16.10;;;9.50;;
20828;SDS011;10575;50.124;8.582;2022-08-19T01:54:10;12.10;;;9.85;;
20828;SDS011;10575;50.124;8.582;2022-08-19T01:56:37;11.93;;;8.93;;
20828;SDS011;10575;50.124;8.582;2022-08-19T01:59:04;11.10;;;8.50;;
20828;SDS011;10575;50.124;8.582;2022-08-19T02:01:37;12.60;;;8.85;;
20828;SDS011;10575;50.124;8.582;2022-08-19T02:04:02;14.50;;;9.18;;
20828;SDS011;10575;50.124;8.582;2022-08-19T02:06:28;10.80;;;8.93;;
20828;SDS011;10575;50.124;8.582;2022-08-19T02:08:54;13.20;;;8.98;;
20828;SDS011;10575;50.124;8.582;2022-08-19T02:11:21;12.30;;;9.38;;
20828;SDS011;10575;50.124;8.582;2022-08-19T02:13:51;13.52;;;9.70;;
20828;SDS011;10575;50.124;8.582;2022-08-19T02:16:18;11.60;;;8.85;;
20828;SDS011;10575;50.124;8.582;2022-08-19T02:18:44;12.02;;;8.93;;
20828;SDS011;10575;50.124;8.582;2022-08-19T02:21:10;10.68;;;8.45;;
20828;SDS011;10575;50.124;8.582;2022-08-19T02:23:37;12.68;;;8.52;;
20828;SDS011;10575;50.124;8.582;2022-08-19T02:26:03;10.77;;;7.78;;
20828;SDS011;10575;50.124;8.582;2022-08-19T02:28:29;14.35;;;9.68;;
20828;SDS011;10575;50.124;8.582;2022-08-19T02:30:54;14.82;;;9.38;;
20828;SDS011;10575;50.124;8.582;2022-08-19T02:33:20;10.93;;;9.18;;
20828;SDS011;10575;50.124;8.582;2022-08-19T02:35:46;10.77;;;8.05;;
20828;SDS011;10575;50.124;8.582;2022-08-19T02:38:12;12.07;;;9.43;;
20828;SDS011;10575;50.124;8.582;2022-08-19T02:40:55;9.85;;;8.38;;
20828;SDS011;10575;50.124;8.582;2022-08-19T02:43:24;9.93;;;7.50;;
20828;SDS011;10575;50.124;8.582;2022-08-19T02:45:51;11.52;;;8.07;;
20828;SDS011;10575;50.124;8.582;2022-08-19T02:48:18;11.68;;;7.45;;
20828;SDS011;10575;50.124;8.582;2022-08-19T02:50:45;9.95;;;7.90;;
20828;SDS011;10575;50.124;8.582;2022-08-19T02:53:12;10.43;;;7.95;;
20828;SDS011;10575;50.124;8.582;2022-08-19T02:55:47;10.93;;;8.10;;
20828;SDS011;10575;50.124;8.582;2022-08-19T02:58:13;11.75;;;8.32;;
20828;SDS011;10575;50.124;8.582;2022-08-19T03:00:41;9.55;;;7.57;;
20828;SDS011;10575;50.124;8.582;2022-08-19T03:03:11;10.07;;;7.65;;
20828;SDS011;10575;50.124;8.582;2022-08-19T03:05:37;10.68;;;8.05;;
20828;SDS011;10575;50.124;8.582;2022-08-19T03:08:02;9.88;;;7.32;;
20828;SDS011;10575;50.124;8.582;2022-08-19T03:10:29;15.63;;;8.45;;
20828;SDS011;10575;50.124;8.582;2022-08-19T03:12:54;11.93;;;8.00;;
20828;SDS011;10575;50.124;8.582;2022-08-19T03:15:20;12.95;;;7.93;;
20828;SDS011;10575;50.124;8.582;2022-08-19T03:17:45;11.73;;;8.57;;
20828;SDS011;10575;50.124;8.582;2022-08-19T03:20:11;12.30;;;7.80;;
20828;SDS011;10575;50.124;8.582;2022-08-19T03:22:36;10.50;;;7.35;;
20828;SDS011;10575;50.124;8.582;2022-08-19T03:25:02;10.32;;;7.32;;
20828;SDS011;10575;50.124;8.582;2022-08-19T03:27:28;10.13;;;7.55;;
20828;SDS011;10575;50.124;8.582;2022-08-19T03:29:54;8.05;;;6.65;;
20828;SDS011;10575;50.124;8.582;2022-08-19T03:32:20;10.25;;;7.25;;
20828;SDS011;10575;50.124;8.582;2022-08-19T03:34:46;9.85;;;8.02;;
20828;SDS011;10575;50.124;8.582;2022-08-19T03:37:12;8.68;;;6.63;;
20828;SDS011;10575;50.124;8.582;2022-08-19T03:39:38;12.95;;;8.85;;
20828;SDS011;10575;50.124;8.582;2022-08-19T03:42:04;10.18;;;7.93;;
20828;SDS011;10575;50.124;8.582;2022-08-19T03:44:30;11.38;;;8.95;;
20828;SDS011;10575;50.124;8.582;2022-08-19T03:46:58;11.10;;;8.48;;
20828;SDS011;10575;50.124;8.582;2022-08-19T03:49:25;9.45;;;7.60;;
20828;SDS011;10575;50.124;8.582;2022-08-19T03:51:54;15.30;;;8.20;;
20828;SDS011;10575;50.124;8.582;2022-08-19T03:54:22;11.50;;;8.30;;
20828;SDS011;10575;50.124;8.582;2022-08-19T03:56:50;11.82;;;7.85;;
20828;SDS011;10575;50.124;8.582;2022-08-19T03:59:20;10.25;;;7.82;;
20828;SDS011;10575;50.124;8.582;2022-08-19T04:01:50;10.35;;;8.18;;
20828;SDS011;10575;50.124;8.582;2022-08-19T04:04:17;10.02;;;8.57;;
20828;SDS011;10575;50.124;8.582;2022-08-19T04:06:42;11.32;;;7.95;;
20828;SDS011;10575;50.124;8.582;2022-08-19T04:09:09;11.75;;;8.27;;
20828;SDS011;10575;50.124;8.582;2022-08-19T04:11:43;11.50;;;8.55;;
20828;SDS011;10575;50.124;8.582;2022-08-19T04:14:12;13.23;;;8.32;;
20828;SDS011;10575;50.124;8.582;2022-08-19T04:16:40;9.38;;;7.18;;
20828;SDS011;10575;50.124;8.582;2022-08-19T04:19:06;9.98;;;8.32;;
20828;SDS011;10575;50.124;8.582;2022-08-19T04:21:32;12.15;;;8.98;;
20828;SDS011;10575;50.124;8.582;2022-08-19T04:23:58;9.80;;;7.80;;
20828;SDS011;10575;50.124;8.582;2022-08-19T04:26:29;9.15;;;8.00;;
20828;SDS011;10575;50.124;8.582;2022-08-19T04:29:00;11.65;;;7.75;;
20828;SDS011;10575;50.124;8.582;2022-08-19T04:31:29;10.65;;;7.55;;
20828;SDS011;10575;50.124;8.582;2022-08-19T04:33:58;12.32;;;8.27;;
20828;SDS011;10575;50.124;8.582;2022-08-19T04:36:26;9.60;;;7.35;;
20828;SDS011;10575;50.124;8.582;2022-08-19T04:38:54;10.48;;;7.18;;
20828;SDS011;10575;50.124;8.582;2022-08-19T04:41:21;16.75;;;8.27;;
20828;SDS011;10575;50.124;8.582;2022-08-19T04:44:06;11.82;;;7.57;;
20828;SDS011;10575;50.124;8.582;2022-08-19T04:46:32;8.65;;;7.30;;
20828;SDS011;10575;50.124;8.582;2022-08-19T04:48:59;10.18;;;7.10;;
20828;SDS011;10575;50.124;8.582;2022-08-19T04:51:25;12.10;;;7.80;;
20828;SDS011;10575;50.124;8.582;2022-08-19T04:53:51;11.88;;;7.40;;
20828;SDS011;10575;50.124;8.582;2022-08-19T04:56:18;11.02;;;7.43;;
20828;SDS011;10575;50.124;8.582;2022-08-19T04:58:45;10.65;;;7.90;;
20828;SDS011;10575;50.124;8.582;2022-08-19T05:01:13;11.25;;;8.38;;
20828;SDS011;10575;50.124;8.582;2022-08-19T05:03:43;9.23;;;6.78;;
20828;SDS011;10575;50.124;8.582;2022-08-19T05:06:09;8.07;;;6.30;;
20828;SDS011;10575;50.124;8.582;2022-08-19T05:08:38;7.53;;;6.35;;
20828;SDS011;10575;50.124;8.582;2022-08-19T05:11:12;12.02;;;7.00;;
20828;SDS011;10575;50.124;8.582;2022-08-19T05:13:42;7.97;;;6.50;;
20828;SDS011;10575;50.124;8.582;2022-08-19T05:16:09;8.80;;;6.05;;
20828;SDS011;10575;50.124;8.582;2022-08-19T05:18:36;7.78;;;6.05;;
20828;SDS011;10575;50.124;8.582;2022-08-19T05:21:21;6.70;;;5.75;;
20828;SDS011;10575;50.124;8.582;2022-08-19T05:24:06;8.65;;;6.07;;
20828;SDS011;10575;50.124;8.582;2022-08-19T05:26:38;7.03;;;5.65;;
20828;SDS011;10575;50.124;8.582;2022-08-19T05:29:06;7.07;;;6.00;;
20828;SDS011;10575;50.124;8.582;2022-08-19T05:31:33;5.90;;;5.30;;
20828;SDS011;10575;50.124;8.582;2022-08-19T05:34:00;7.13;;;6.43;;
20828;SDS011;10575;50.124;8.582;2022-08-19T05:36:26;6.40;;;5.68;;
20828;SDS011;10575;50.124;8.582;2022-08-19T05:38:53;11.52;;;6.03;;
20828;SDS011;10575;50.124;8.582;2022-08-19T05:41:19;10.48;;;5.90;;
20828;SDS011;10575;50.124;8.582;2022-08-19T05:43:46;7.97;;;5.18;;
20828;SDS011;10575;50.124;8.582;2022-08-19T05:46:18;7.40;;;5.40;;
20828;SDS011;10575;50.124;8.582;2022-08-19T05:48:44;7.72;;;5.40;;
20828;SDS011;10575;50.124;8.582;2022-08-19T05:51:10;6.60;;;4.93;;
20828;SDS011;10575;50.124;8.582;2022-08-19T05:53:36;7.88;;;5.90;;
20828;SDS011;10575;50.124;8.582;2022-08-19T05:56:06;10.15;;;6.00;;
20828;SDS011;10575;50.124;8.582;2022-08-19T05:58:33;8.77;;;5.30;;
20828;SDS011;10575;50.124;8.582;2022-08-19T06:00:59;12.73;;;6.25;;
20828;SDS011;10575;50.124;8.582;2022-08-19T06:03:31;11.45;;;5.45;;
20828;SDS011;10575;50.124;8.582;2022-08-19T06:05:58;10.80;;;5.00;;
20828;SDS011;10575;50.124;8.582;2022-08-19T06:08:25;4.95;;;3.97;;
20828;SDS011;10575;50.124;8.582;2022-08-19T06:10:51;4.38;;;3.95;;
20828;SDS011;10575;50.124;8.582;2022-08-19T06:13:18;6.78;;;4.20;;
20828;SDS011;10575;50.124;8.582;2022-08-19T06:15:44;6.00;;;3.92;;
20828;SDS011;10575;50.124;8.582;2022-08-19T06:18:11;5.15;;;3.65;;
20828;SDS011;10575;50.124;8.582;2022-08-19T06:20:38;7.88;;;4.20;;
20828;SDS011;10575;50.124;8.582;2022-08-19T06:23:04;5.63;;;3.97;;
20828;SDS011;10575;50.124;8.582;2022-08-19T06:25:30;4.20;;;3.80;;
20828;SDS011;10575;50.124;8.582;2022-08-19T06:27:55;4.35;;;3.50;;
20828;SDS011;10575;50.124;8.582;2022-08-19T06:30:21;10.32;;;5.13;;
20828;SDS011;10575;50.124;8.582;2022-08-19T06:32:46;6.82;;;5.10;;
20828;SDS011;10575;50.124;8.582;2022-08-19T06:35:12;4.88;;;4.38;;
20828;SDS011;10575;50.124;8.582;2022-08-19T06:37:39;4.60;;;3.55;;
20828;SDS011;10575;50.124;8.582;2022-08-19T06:40:05;4.15;;;3.45;;
20828;SDS011;10575;50.124;8.582;2022-08-19T06:42:33;5.50;;;4.00;;
20828;SDS011;10575;50.124;8.582;2022-08-19T06:44:59;3.28;;;2.97;;
20828;SDS011;10575;50.124;8.582;2022-08-19T06:47:27;4.80;;;2.88;;
20828;SDS011;10575;50.124;8.582;2022-08-19T06:49:56;4.03;;;3.30;;
20828;SDS011;10575;50.124;8.582;2022-08-19T06:52:27;3.33;;;2.90;;
20828;SDS011;10575;50.124;8.582;2022-08-19T06:55:00;3.28;;;2.97;;
20828;SDS011;10575;50.124;8.582;2022-08-19T06:57:26;3.65;;;3.35;;
20828;SDS011;10575;50.124;8.582;2022-08-19T06:59:53;4.82;;;3.20;;
20828;SDS011;10575;50.124;8.582;2022-08-19T07:02:21;3.33;;;2.80;;
20828;SDS011;10575;50.124;8.582;2022-08-19T07:04:51;5.13;;;3.08;;
20828;SDS011;10575;50.124;8.582;2022-08-19T07:07:17;3.40;;;2.47;;
20828;SDS011;10575;50.124;8.582;2022-08-19T07:09:45;4.13;;;3.17;;
20828;SDS011;10575;50.124;8.582;2022-08-19T07:12:12;3.55;;;2.90;;
20828;SDS011;10575;50.124;8.582;2022-08-19T07:14:40;2.92;;;2.67;;
20828;SDS011;10575;50.124;8.582;2022-08-19T07:17:07;3.38;;;2.78;;
20828;SDS011;10575;50.124;8.582;2022-08-19T07:19:34;4.63;;;3.00;;
20828;SDS011;10575;50.124;8.582;2022-08-19T07:22:01;3.13;;;2.72;;
20828;SDS011;10575;50.124;8.582;2022-08-19T07:24:29;4.63;;;2.78;;
20828;SDS011;10575;50.124;8.582;2022-08-19T07:26:56;7.55;;;2.88;;
20828;SDS011;10575;50.124;8.582;2022-08-19T07:29:25;3.30;;;3.00;;
20828;SDS011;10575;50.124;8.582;2022-08-19T07:31:53;4.90;;;2.70;;
20828;SDS011;10575;50.124;8.582;2022-08-19T07:34:23;3.38;;;3.08;;
20828;SDS011;10575;50.124;8.582;2022-08-19T07:36:50;7.38;;;3.13;;
20828;SDS011;10575;50.124;8.582;2022-08-19T07:39:18;3.95;;;2.85;;
20828;SDS011;10575;50.124;8.582;2022-08-19T07:41:46;2.92;;;2.58;;
20828;SDS011;10575;50.124;8.582;2022-08-19T07:44:13;3.70;;;3.40;;
20828;SDS011;10575;50.124;8.582;2022-08-19T07:46:41;3.28;;;2.97;;
20828;SDS011;10575;50.124;8.582;2022-08-19T07:49:09;4.47;;;3.28;;
20828;SDS011;10575;50.124;8.582;2022-08-19T07:51:42;4.05;;;3.55;;
20828;SDS011;10575;50.124;8.582;2022-08-19T07:54:09;6.95;;;3.33;;
20828;SDS011;10575;50.124;8.582;2022-08-19T07:56:36;3.25;;;2.97;;
20828;SDS011;10575;50.124;8.582;2022-08-19T07:59:02;3.90;;;3.50;;
20828;SDS011;10575;50.124;8.582;2022-08-19T08:01:28;4.30;;;3.40;;
20828;SDS011;10575;50.124;8.582;2022-08-19T08:03:55;5.63;;;3.38;;
20828;SDS011;10575;50.124;8.582;2022-08-19T08:06:41;3.53;;;3.10;;
20828;SDS011;10575;50.124;8.582;2022-08-19T08:09:27;3.78;;;3.47;;
20828;SDS011;10575;50.124;8.582;2022-08-19T08:11:57;4.70;;;3.92;;
20828;SDS011;10575;50.124;8.582;2022-08-19T08:14:28;3.70;;;3.40;;
20828;SDS011;10575;50.124;8.582;2022-08-19T08:16:55;5.82;;;4.03;;
20828;SDS011;10575;50.124;8.582;2022-08-19T08:19:22;3.72;;;3.38;;
20828;SDS011;10575;50.124;8.582;2022-08-19T08:21:49;5.85;;;3.85;;
20828;SDS011;10575;50.124;8.582;2022-08-19T08:24:16;4.25;;;3.85;;
20828;SDS011;10575;50.124;8.582;2022-08-19T08:26:42;4.28;;;3.78;;
20828;SDS011;10575;50.124;8.582;2022-08-19T08:29:12;4.57;;;4.13;;
20828;SDS011;10575;50.124;8.582;2022-08-19T08:31:40;7.38;;;3.95;;
20828;SDS011;10575;50.124;8.582;2022-08-19T08:34:08;4.30;;;3.70;;
20828;SDS011;10575;50.124;8.582;2022-08-19T08:36:38;4.07;;;3.67;;
20828;SDS011;10575;50.124;8.582;2022-08-19T08:39:06;5.07;;;3.92;;
20828;SDS011;10575;50.124;8.582;2022-08-19T08:44:19;5.50;;;3.72;;
20828;SDS011;10575;50.124;8.582;2022-08-19T08:46:55;5.03;;;4.28;;
20828;SDS011;10575;50.124;8.582;2022-08-19T08:55:01;9.88;;;3.92;;
20828;SDS011;10575;50.124;8.582;2022-08-19T09:00:31;5.47;;;4.30;;
20828;SDS011;10575;50.124;8.582;2022-08-19T09:02:59;3.85;;;3.42;;
20828;SDS011;10575;50.124;8.582;2022-08-19T09:08:18;5.18;;;3.92;;
20828;SDS011;10575;50.124;8.582;2022-08-19T09:10:57;4.25;;;3.85;;
20828;SDS011;10575;50.124;8.582;2022-08-19T09:16:00;5.13;;;4.10;;
20828;SDS011;10575;50.124;8.582;2022-08-19T09:18:45;5.80;;;4.25;;
20828;SDS011;10575;50.124;8.582;2022-08-19T09:21:14;6.07;;;3.80;;
20828;SDS011;10575;50.124;8.582;2022-08-19T09:23:40;6.75;;;4.28;;
20828;SDS011;10575;50.124;8.582;2022-08-19T09:26:09;6.22;;;4.25;;
20828;SDS011;10575;50.124;8.582;2022-08-19T09:28:41;5.82;;;4.13;;
20828;SDS011;10575;50.124;8.582;2022-08-19T09:31:11;6.03;;;3.72;;
20828;SDS011;10575;50.124;8.582;2022-08-19T09:33:37;4.20;;;3.80;;
20828;SDS011;10575;50.124;8.582;2022-08-19T09:36:04;5.32;;;4.22;;
20828;SDS011;10575;50.124;8.582;2022-08-19T09:38:33;4.65;;;4.25;;
20828;SDS011;10575;50.124;8.582;2022-08-19T09:41:04;7.13;;;4.50;;
20828;SDS011;10575;50.124;8.582;2022-08-19T09:43:31;4.45;;;4.05;;
20828;SDS011;10575;50.124;8.582;2022-08-19T09:45:58;5.93;;;4.50;;
20828;SDS011;10575;50.124;8.582;2022-08-19T09:48:25;4.93;;;4.32;;
20828;SDS011;10575;50.124;8.582;2022-08-19T09:50:51;4.22;;;3.83;;
20828;SDS011;10575;50.124;8.582;2022-08-19T09:53:16;6.40;;;4.53;;
20828;SDS011;10575;50.124;8.582;2022-08-19T09:55:43;5.90;;;4.28;;
20828;SDS011;10575;50.124;8.582;2022-08-19T09:58:08;5.70;;;4.43;;
20828;SDS011;10575;50.124;8.582;2022-08-19T10:00:36;4.82;;;4.40;;
20828;SDS011;10575;50.124;8.582;2022-08-19T10:03:03;4.50;;;4.05;;
20828;SDS011;10575;50.124;8.582;2022-08-19T10:05:28;5.75;;;5.10;;
20828;SDS011;10575;50.124;8.582;2022-08-19T10:08:13;6.85;;;5.93;;
20828;SDS011;10575;50.124;8.582;2022-08-19T10:10:41;9.40;;;5.53;;
20828;SDS011;10575;50.124;8.582;2022-08-19T10:13:10;8.10;;;5.78;;
20828;SDS011;10575;50.124;8.582;2022-08-19T10:15:36;7.20;;;5.45;;
20828;SDS011;10575;50.124;8.582;2022-08-19T10:18:04;6.15;;;5.55;;
20828;SDS011;10575;50.124;8.582;2022-08-19T10:20:31;6.03;;;5.43;;
20828;SDS011;10575;50.124;8.582;2022-08-19T10:22:57;6.80;;;6.07;;
20828;SDS011;10575;50.124;8.582;2022-08-19T10:25:24;7.85;;;5.47;;
20828;SDS011;10575;50.124;8.582;2022-08-19T10:27:51;6.75;;;6.15;;
20828;SDS011;10575;50.124;8.582;2022-08-19T10:30:17;6.70;;;6.10;;
20828;SDS011;10575;50.124;8.582;2022-08-19T10:32:43;6.43;;;5.45;;
20828;SDS011;10575;50.124;8.582;2022-08-19T10:35:10;6.50;;;5.90;;
20828;SDS011;10575;50.124;8.582;2022-08-19T10:37:37;8.38;;;5.70;;
20828;SDS011;10575;50.124;8.582;2022-08-19T10:40:04;6.72;;;5.60;;
20828;SDS011;10575;50.124;8.582;2022-08-19T10:42:32;9.30;;;6.97;;
20828;SDS011;10575;50.124;8.582;2022-08-19T10:45:01;6.85;;;6.25;;
20828;SDS011;10575;50.124;8.582;2022-08-19T10:47:28;7.80;;;6.90;;
20828;SDS011;10575;50.124;8.582;2022-08-19T10:49:53;7.68;;;6.28;;
20828;SDS011;10575;50.124;8.582;2022-08-19T10:52:39;7.05;;;6.35;;
20828;SDS011;10575;50.124;8.582;2022-08-19T10:55:07;8.18;;;6.60;;
20828;SDS011;10575;50.124;8.582;2022-08-19T10:57:52;7.63;;;6.85;;
20828;SDS011;10575;50.124;8.582;2022-08-19T11:00:18;7.22;;;6.53;;
20828;SDS011;10575;50.124;8.582;2022-08-19T11:02:44;7.57;;;6.65;;
20828;SDS011;10575;50.124;8.582;2022-08-19T11:05:10;8.25;;;6.80;;
20828;SDS011;10575;50.124;8.582;2022-08-19T11:07:39;6.78;;;6.18;;
20828;SDS011;10575;50.124;8.582;2022-08-19T11:10:05;8.18;;;6.75;;
20828;SDS011;10575;50.124;8.582;2022-08-19T11:12:38;8.02;;;6.57;;
20828;SDS011;10575;50.124;8.582;2022-08-19T11:15:05;7.43;;;6.70;;
20828;SDS011;10575;50.124;8.582;2022-08-19T11:17:33;11.18;;;8.02;;
20828;SDS011;10575;50.124;8.582;2022-08-19T11:19:59;8.98;;;8.07;;
20828;SDS011;10575;50.124;8.582;2022-08-19T11:22:28;10.18;;;7.22;;
20828;SDS011;10575;50.124;8.582;2022-08-19T11:24:53;8.57;;;7.88;;
20828;SDS011;10575;50.124;8.582;2022-08-19T11:27:20;7.47;;;6.78;;
20828;SDS011;10575;50.124;8.582;2022-08-19T11:29:45;7.88;;;7.18;;
20828;SDS011;10575;50.124;8.582;2022-08-19T11:32:11;9.70;;;7.85;;
20828;SDS011;10575;50.124;8.582;2022-08-19T11:34:37;8.50;;;7.70;;
20828;SDS011;10575;50.124;8.582;2022-08-19T11:37:03;9.68;;;8.48;;
20828;SDS011;10575;50.124;8.582;2022-08-19T11:39:30;10.88;;;8.80;;
20828;SDS011;10575;50.124;8.582;2022-08-19T11:42:00;9.30;;;8.30;;
20828;SDS011;10575;50.124;8.582;2022-08-19T11:44:49;9.93;;;9.02;;
20828;SDS011;10575;50.124;8.582;2022-08-19T11:47:15;10.02;;;9.02;;
20828;SDS011;10575;50.124;8.582;2022-08-19T11:49:41;10.05;;;9.05;;
20828;SDS011;10575;50.124;8.582;2022-08-19T11:52:07;10.93;;;9.43;;
20828;SDS011;10575;50.124;8.582;2022-08-19T11:54:33;9.88;;;8.88;;
20828;SDS011;10575;50.124;8.582;2022-08-19T11:56:59;8.95;;;8.15;;
20828;SDS011;10575;50.124;8.582;2022-08-19T11:59:26;9.63;;;8.63;;
20828;SDS011;10575;50.124;8.582;2022-08-19T12:01:52;9.07;;;8.18;;
20828;SDS011;10575;50.124;8.582;2022-08-19T12:04:17;9.27;;;8.38;;
20828;SDS011;10575;50.124;8.582;2022-08-19T12:06:43;10.13;;;8.48;;
20828;SDS011;10575;50.124;8.582;2022-08-19T12:09:09;10.65;;;8.52;;
20828;SDS011;10575;50.124;8.582;2022-08-19T12:11:36;8.43;;;7.63;;
20828;SDS011;10575;50.124;8.582;2022-08-19T12:14:03;8.70;;;7.90;;
20828;SDS011;10575;50.124;8.582;2022-08-19T12:16:29;8.90;;;8.10;;
20828;SDS011;10575;50.124;8.582;2022-08-19T12:18:56;8.18;;;7.47;;
20828;SDS011;10575;50.124;8.582;2022-08-19T12:21:25;8.93;;;8.02;;
20828;SDS011;10575;50.124;8.582;2022-08-19T12:23:56;9.25;;;7.68;;
20828;SDS011;10575;50.124;8.582;2022-08-19T12:26:23;8.23;;;7.43;;
20828;SDS011;10575;50.124;8.582;2022-08-19T12:28:49;7.22;;;6.55;;
20828;SDS011;10575;50.124;8.582;2022-08-19T12:31:15;7.50;;;6.80;;
20828;SDS011;10575;50.124;8.582;2022-08-19T12:33:42;8.05;;;7.35;;
20828;SDS011;10575;50.124;8.582;2022-08-19T12:36:08;8.10;;;7.30;;
20828;SDS011;10575;50.124;8.582;2022-08-19T12:38:36;8.40;;;6.68;;
20828;SDS011;10575;50.124;8.582;2022-08-19T12:41:03;7.47;;;6.55;;
20828;SDS011;10575;50.124;8.582;2022-08-19T12:43:35;7.38;;;6.60;;
20828;SDS011;10575;50.124;8.582;2022-08-19T12:46:02;6.97;;;6.28;;
20828;SDS011;10575;50.124;8.582;2022-08-19T12:48:29;7.32;;;6.63;;
20828;SDS011;10575;50.124;8.582;2022-08-19T12:50:56;6.75;;;6.15;;
20828;SDS011;10575;50.124;8.582;2022-08-19T12:53:39;7.13;;;6.10;;
20828;SDS011;10575;50.124;8.582;2022-08-19T12:56:06;7.10;;;6.40;;
20828;SDS011;10575;50.124;8.582;2022-08-19T12:58:32;9.48;;;6.20;;
20828;SDS011;10575;50.124;8.582;2022-08-19T13:00:59;6.05;;;5.55;;
20828;SDS011;10575;50.124;8.582;2022-08-19T13:03:30;4.95;;;4.53;;
20828;SDS011;10575;50.124;8.582;2022-08-19T13:05:56;5.13;;;4.63;;
20828;SDS011;10575;50.124;8.582;2022-08-19T13:08:21;6.32;;;5.72;;
20828;SDS011;10575;50.124;8.582;2022-08-19T13:10:47;6.00;;;5.40;;
20828;SDS011;10575;50.124;8.582;2022-08-19T13:13:12;5.72;;;5.10;;
20828;SDS011;10575;50.124;8.582;2022-08-19T13:15:39;6.95;;;5.07;;
20828;SDS011;10575;50.124;8.582;2022-08-19T13:18:07;5.20;;;4.80;;
20828;SDS011;10575;50.124;8.582;2022-08-19T13:20:35;5.03;;;4.57;;
20828;SDS011;10575;50.124;8.582;2022-08-19T13:23:02;4.88;;;4.47;;
20828;SDS011;10575;50.124;8.582;2022-08-19T13:25:28;4.55;;;4.15;;
20828;SDS011;10575;50.124;8.582;2022-08-19T13:27:54;5.32;;;4.82;;
20828;SDS011;10575;50.124;8.582;2022-08-19T13:30:20;5.18;;;4.63;;
20828;SDS011;10575;50.124;8.582;2022-08-19T13:33:04;5.28;;;4.80;;
20828;SDS011;10575;50.124;8.582;2022-08-19T13:35:43;5.57;;;4.32;;
20828;SDS011;10575;50.124;8.582;2022-08-19T13:38:11;5.35;;;4.88;;
20828;SDS011;10575;50.124;8.582;2022-08-19T13:40:38;4.63;;;4.15;;
20828;SDS011;10575;50.124;8.582;2022-08-19T13:43:05;3.97;;;3.58;;
20828;SDS011;10575;50.124;8.582;2022-08-19T13:45:32;4.40;;;4.05;;
20828;SDS011;10575;50.124;8.582;2022-08-19T13:47:58;4.70;;;4.25;;
20828;SDS011;10575;50.124;8.582;2022-08-19T13:50:26;6.68;;;4.22;;
20828;SDS011;10575;50.124;8.582;2022-08-19T13:52:54;4.47;;;4.07;;
20828;SDS011;10575;50.124;8.582;2022-08-19T13:55:21;4.90;;;4.28;;
20828;SDS011;10575;50.124;8.582;2022-08-19T13:57:51;4.55;;;3.97;;
20828;SDS011;10575;50.124;8.582;2022-08-19T14:00:18;5.63;;;4.00;;
20828;SDS011;10575;50.124;8.582;2022-08-19T14:02:44;5.10;;;4.15;;
20828;SDS011;10575;50.124;8.582;2022-08-19T14:05:13;4.80;;;4.40;;
20828;SDS011;10575;50.124;8.582;2022-08-19T14:07:40;5.82;;;3.92;;
20828;SDS011;10575;50.124;8.582;2022-08-19T14:10:07;3.78;;;3.47;;
20828;SDS011;10575;50.124;8.582;2022-08-19T14:12:35;4.60;;;3.30;;
20828;SDS011;10575;50.124;8.582;2022-08-19T14:15:01;5.57;;;3.85;;
20828;SDS011;10575;50.124;8.582;2022-08-19T14:17:27;4.82;;;3.47;;
20828;SDS011;10575;50.124;8.582;2022-08-19T14:20:00;6.07;;;3.70;;
20828;SDS011;10575;50.124;8.582;2022-08-19T14:22:32;6.90;;;4.03;;
20828;SDS011;10575;50.124;8.582;2022-08-19T14:24:58;4.68;;;3.75;;
20828;SDS011;10575;50.124;8.582;2022-08-19T14:27:23;4.15;;;3.60;;
20828;SDS011;10575;50.124;8.582;2022-08-19T14:29:50;4.13;;;3.83;;
20828;SDS011;10575;50.124;8.582;2022-08-19T14:32:16;5.75;;;4.18;;
20828;SDS011;10575;50.124;8.582;2022-08-19T14:34:42;4.72;;;4.30;;
20828;SDS011;10575;50.124;8.582;2022-08-19T14:37:11;4.60;;;4.20;;
20828;SDS011;10575;50.124;8.582;2022-08-19T14:39:39;4.43;;;4.03;;
20828;SDS011;10575;50.124;8.582;2022-08-19T14:42:09;4.60;;;4.18;;
20828;SDS011;10575;50.124;8.582;2022-08-19T14:44:34;4.50;;;3.72;;
20828;SDS011;10575;50.124;8.582;2022-08-19T14:47:00;4.97;;;3.47;;
20828;SDS011;10575;50.124;8.582;2022-08-19T14:49:26;4.65;;;3.60;;
20828;SDS011;10575;50.124;8.582;2022-08-19T14:51:52;4.38;;;3.90;;
20828;SDS011;10575;50.124;8.582;2022-08-19T14:54:17;4.32;;;3.83;;
20828;SDS011;10575;50.124;8.582;2022-08-19T14:56:43;4.13;;;3.72;;
20828;SDS011;10575;50.124;8.582;2022-08-19T14:59:09;4.88;;;3.60;;
20828;SDS011;10575;50.124;8.582;2022-08-19T15:01:34;3.70;;;3.40;;
20828;SDS011;10575;50.124;8.582;2022-08-19T15:04:00;3.53;;;3.25;;
20828;SDS011;10575;50.124;8.582;2022-08-19T15:06:26;4.78;;;4.03;;